Forside
METAR-TAF:

METAR-TAF

Lufthavne :

Maputo, Mozambique

Breddekreds: 25-55S, længdekreds: 032-34E, højde: 39 m

Aktuelle vejr

Denne rapport blev lavet for 1 time og 9 minutter siden, kl. 11:00 UTC
Vind 12 kt fra sydøst
Temperatur 33°C
Fugtighed 49%
Tryk 1011 hPa
Sigt 10 km eller mere
Nogle få skyer i en højde af 2000 ft

METAR: FQMA 221100Z 13012KT 9999 FEW020 33/21 Q1011 NOSIG

Tid: 14:09 (12:09 UTC)

Vejrudsigter

Denne rapport blev lavet for 8 timer og 9 minutter siden, kl. 04:00 UTC
Foreløbig gælder fra 22 på 06 UTC til 23 på 12 UTC
Vind 8 kt fra sydvest
Sigt 10 km eller mere
Spredte skyer i en højde af 2000 ft
ændring
fra 22 på 12 UTC til 22 på 14 UTC
Vind 12 kt fra sydøst
ændring
fra 22 på 20 UTC til 22 på 22 UTC
Vind 10 kt fra sydsydvest

TAF: FQMA 220400Z 2206/2312 23008KT 9999 SCT020 BECMG 2212/2214 14012KT BECMG 2220/2222 21010KT TX32/2213Z TN19/2303Z

Vejrobservationer og prognoser fra mere end 4000 lufthavne (METAR og TAF).

De gule og røde prikker repræsenterer de meteorologiske stationer.

Flyt musen over at se navnet på stationen.

Så klik over at se vejr observationer og prognoser.

At skifte det kort: Klik på de grønne knapper med et sort kors for at zoome ind; på den grønne knap med en bindestreg for at zoome ud; eller på de grønne pile for tilstødende kort.


METAR-TAF: